Terminal Aerodrome Forecast
Issued by NWS Wilmington, OH

Current Version | Previous Version | Graphics & Text | Print | Product List | Glossary On
Versions: 1 2 3 4 5 6 7 8 9 10 11 12 13 14 15 16 17 18 19 20 21 22 23
000
FTUS41 KILN 270336 AAA
TAFDAY
TAF AMD
KDAY 270336Z 2704/2724 18010KT P6SM BKN250
     FM270600 18012KT P6SM BKN250 WS020/20045KT
     FM271200 18015G27KT P6SM VCSH SCT025 BKN250 WS020/20045KT
      TEMPO 2712/2714 -SHRA BKN025
     FM271400 19017G22KT P6SM VCSH BKN022
     FM271800 23019KT P6SM BKN035=

USA.gov is the U.S. government's official web portal to all federal, state and local government web resources and services.